createdAt,value
2019-05-10T00:00:10.125Z,4.20
2019-05-10T00:05:35.263Z,4.70
2019-05-10T00:10:47.347Z,4.22
2019-05-10T00:15:54.427Z,5.03
2019-05-10T00:21:02.451Z,4.65
2019-05-10T00:31:15.430Z,4.50
2019-05-10T00:41:28.428Z,4.30
2019-05-10T00:51:41.438Z,4.22
2019-05-10T00:56:48.497Z,4.15
2019-05-10T01:07:01.407Z,4.00
2019-05-10T01:22:20.451Z,3.98
2019-05-10T01:27:27.566Z,4.53
2019-05-10T01:32:34.767Z,4.60
2019-05-10T01:37:41.568Z,4.55
2019-05-10T01:42:48.474Z,5.12
2019-05-10T01:47:55.502Z,4.85
2019-05-10T01:53:02.487Z,5.20
2019-05-10T01:58:09.484Z,5.70
2019-05-10T02:03:16.472Z,5.58
2019-05-10T02:08:23.445Z,5.40
2019-05-10T02:13:30.444Z,6.20
2019-05-10T02:18:37.448Z,6.22
2019-05-10T02:23:44.421Z,6.15
2019-05-10T02:28:52.492Z,5.33
2019-05-10T02:33:59.438Z,4.87
2019-05-10T02:39:09.119Z,4.65
2019-05-10T02:44:16.409Z,4.10
2019-05-10T02:49:23.453Z,4.05
2019-05-10T02:54:30.433Z,3.62
2019-05-10T02:59:37.427Z,3.40
2019-05-10T03:04:47.462Z,3.33
2019-05-10T03:09:54.452Z,2.75
2019-05-10T03:15:01.565Z,2.92
2019-05-10T03:20:09.566Z,3.10
2019-05-10T03:25:17.417Z,2.85
2019-05-10T03:30:24.439Z,2.67
2019-05-10T03:35:31.445Z,2.72
2019-05-10T03:40:38.721Z,2.60
2019-05-10T03:45:45.577Z,2.45
2019-05-10T03:50:52.500Z,2.44
2019-05-10T03:55:59.476Z,2.40
2019-05-10T04:01:06.518Z,2.50
2019-05-10T04:06:13.576Z,2.70
2019-05-10T04:11:22.442Z,2.80
2019-05-10T04:16:29.546Z,2.70
2019-05-10T04:21:36.568Z,2.58
2019-05-10T04:26:43.436Z,2.30
2019-05-10T04:31:50.430Z,2.33
2019-05-10T04:36:57.546Z,2.40
2019-05-10T04:42:04.440Z,2.52
2019-05-10T04:47:12.710Z,2.62
2019-05-10T04:52:19.561Z,2.70
2019-05-10T04:57:26.437Z,2.10
2019-05-10T05:02:33.454Z,2.42
2019-05-10T05:07:40.434Z,2.47
2019-05-10T05:18:00.744Z,2.47
2019-05-10T05:23:07.559Z,3.00
2019-05-10T05:28:18.301Z,2.83
2019-05-10T05:33:23.384Z,3.20
2019-05-10T05:38:30.558Z,2.20
2019-05-10T05:43:45.326Z,2.50
2019-05-10T05:48:46.432Z,2.40
2019-05-10T05:53:53.461Z,2.40
2019-05-10T05:59:00.435Z,2.60
2019-05-10T06:04:12.529Z,2.80
2019-05-10T06:09:16.416Z,2.30
2019-05-10T06:14:23.467Z,2.83
2019-05-10T06:19:30.855Z,3.17
2019-05-10T06:24:37.705Z,2.52
2019-05-10T06:29:44.557Z,2.80
2019-05-10T06:34:51.435Z,2.42
2019-05-10T06:39:58.571Z,2.40
2019-05-10T06:45:14.347Z,1.90
2019-05-10T06:50:17.577Z,2.15
2019-05-10T06:55:25.248Z,1.92
2019-05-10T07:00:32.418Z,1.52
2019-05-10T07:05:39.434Z,1.90
2019-05-10T07:10:46.574Z,1.90
2019-05-10T07:15:53.572Z,2.50
2019-05-10T07:21:00.935Z,3.00
2019-05-10T07:26:09.954Z,5.10
2019-05-10T07:31:17.448Z,3.35
2019-05-10T07:36:27.249Z,3.00
2019-05-10T07:41:33.417Z,3.40
2019-05-10T07:46:47.094Z,4.53
2019-05-10T07:51:49.581Z,2.70
2019-05-10T07:56:56.600Z,3.05
2019-05-10T08:02:06.072Z,3.15
2019-05-10T08:07:12.455Z,2.92
2019-05-10T08:12:19.667Z,3.07
2019-05-10T08:17:28.793Z,2.83
2019-05-10T08:27:50.236Z,6.25
2019-05-10T08:32:52.709Z,8.00
2019-05-10T08:43:13.990Z,9.23
2019-05-10T08:53:26.455Z,11.00
2019-05-10T08:58:37.181Z,11.80
2019-05-10T09:08:55.331Z,10.55
2019-05-10T09:13:58.499Z,10.00
2019-05-10T09:19:05.559Z,9.33
2019-05-10T09:24:12.870Z,10.78
2019-05-10T09:29:21.792Z,13.40
2019-05-10T09:34:28.561Z,13.08
2019-05-10T09:39:35.534Z,13.55
2019-05-10T09:44:45.679Z,13.40
2019-05-10T09:49:56.691Z,12.18
2019-05-10T09:55:04.041Z,12.40
2019-05-10T10:00:09.845Z,13.00
2019-05-10T10:05:17.932Z,14.93
2019-05-10T10:10:31.705Z,17.65
2019-05-10T10:15:34.493Z,19.12
2019-05-10T10:26:01.563Z,20.88
2019-05-10T10:31:08.741Z,18.80
2019-05-10T10:36:15.685Z,15.57
2019-05-10T10:46:30.495Z,12.93
2019-05-10T10:51:37.924Z,12.05
2019-05-10T11:02:23.246Z,14.45
2019-05-10T11:07:10.067Z,11.90
2019-05-10T11:12:09.422Z,10.20
2019-05-10T11:17:16.486Z,8.18
2019-05-10T11:22:23.524Z,6.92
2019-05-10T11:27:30.997Z,4.92
2019-05-10T11:32:38.420Z,4.30
2019-05-10T11:37:45.846Z,5.47
2019-05-10T11:42:52.858Z,5.10
2019-05-10T11:48:02.037Z,5.58
2019-05-10T11:53:13.328Z,5.90
2019-05-10T11:58:17.438Z,6.58
2019-05-10T12:03:24.549Z,6.47
2019-05-10T12:08:32.423Z,7.10
2019-05-10T12:13:39.515Z,6.78
2019-05-10T12:19:02.439Z,8.13
2019-05-10T12:26:33.846Z,6.85
2019-05-10T12:29:12.431Z,8.90
2019-05-10T12:34:14.581Z,7.53
2019-05-10T12:39:21.574Z,5.15
2019-05-10T12:44:33.453Z,2.98
2019-05-10T12:49:40.927Z,2.80
2019-05-10T12:54:48.459Z,3.08
2019-05-10T12:59:55.549Z,2.98
2019-05-10T13:05:02.455Z,2.50
2019-05-10T13:10:10.279Z,3.95
2019-05-10T13:15:17.456Z,1.60
2019-05-10T13:20:30.726Z,1.50
2019-05-10T13:25:34.430Z,2.77
2019-05-10T13:30:41.546Z,2.52
2019-05-10T13:35:50.775Z,2.52
2019-05-10T13:40:58.412Z,1.90
2019-05-10T13:46:05.412Z,2.55
2019-05-10T13:51:12.447Z,2.25
2019-05-10T13:56:19.474Z,3.10
2019-05-10T14:01:26.578Z,2.90
2019-05-10T14:06:34.227Z,3.02
2019-05-10T14:11:46.644Z,3.50
2019-05-10T14:16:51.456Z,3.25
2019-05-10T14:21:58.861Z,4.80
2019-05-10T14:27:05.562Z,3.85
2019-05-10T14:32:12.435Z,3.72
2019-05-10T14:37:21.473Z,4.10
2019-05-10T14:42:31.279Z,3.70
2019-05-10T14:47:46.836Z,4.20
2019-05-10T14:52:46.400Z,4.53
2019-05-10T14:57:53.449Z,4.67
2019-05-10T15:03:02.460Z,4.70
2019-05-10T15:08:09.407Z,5.03
2019-05-10T15:13:19.515Z,4.30
2019-05-10T15:18:25.450Z,4.40
2019-05-10T15:23:32.449Z,4.67
2019-05-10T15:28:42.133Z,3.70
2019-05-10T15:33:48.449Z,3.95
2019-05-10T15:38:55.447Z,4.65
2019-05-10T15:44:02.475Z,3.40
2019-05-10T15:49:13.586Z,2.75
2019-05-10T15:54:19.441Z,2.62
2019-05-10T15:59:26.435Z,2.72
2019-05-10T16:04:33.614Z,3.17
2019-05-10T16:09:40.467Z,2.62
2019-05-10T16:14:47.453Z,2.43
2019-05-10T16:19:59.457Z,2.20
2019-05-10T16:25:03.470Z,2.27
2019-05-10T16:30:11.897Z,2.73
2019-05-10T16:35:22.019Z,2.20
2019-05-10T16:40:28.463Z,1.90
2019-05-10T16:45:35.714Z,2.10
2019-05-10T16:50:42.560Z,1.90
2019-05-10T16:55:49.459Z,1.67
2019-05-10T17:00:58.490Z,1.60
2019-05-10T17:06:05.794Z,1.30
2019-05-10T17:11:12.747Z,2.22
2019-05-10T17:16:19.585Z,1.80
2019-05-10T17:21:28.450Z,2.05
2019-05-10T17:26:35.495Z,2.25
2019-05-10T17:31:45.590Z,2.95
2019-05-10T17:36:57.073Z,1.85
2019-05-10T17:42:03.063Z,2.02
2019-05-10T17:47:09.566Z,2.72
2019-05-10T17:52:16.519Z,2.62
2019-05-10T17:57:25.894Z,2.25
2019-05-10T18:02:32.660Z,2.12
2019-05-10T18:07:39.575Z,2.12
2019-05-10T18:12:46.444Z,2.42
2019-05-10T18:17:57.454Z,2.10
2019-05-10T18:23:02.454Z,2.62
2019-05-10T18:28:09.543Z,3.05
2019-05-10T18:33:16.464Z,3.75
2019-05-10T18:38:23.917Z,3.22
2019-05-10T18:43:35.330Z,2.75
2019-05-10T18:48:40.451Z,3.30
2019-05-10T18:53:47.442Z,3.10
2019-05-10T18:58:54.572Z,3.15
2019-05-10T19:04:01.451Z,2.60
2019-05-10T19:09:09.680Z,2.50
2019-05-10T19:14:16.578Z,2.60
2019-05-10T19:19:24.872Z,2.60
2019-05-10T19:24:32.245Z,2.80
2019-05-10T19:29:45.557Z,2.80
2019-05-10T19:34:56.931Z,2.60
2019-05-10T19:39:57.444Z,3.00
2019-05-10T19:45:04.594Z,2.60
2019-05-10T19:50:12.232Z,2.87
2019-05-10T19:55:21.690Z,3.12
2019-05-10T20:00:29.271Z,3.20
2019-05-10T20:05:36.471Z,3.27
2019-05-10T20:10:43.480Z,3.50
2019-05-10T20:15:50.523Z,3.72
2019-05-10T20:20:57.580Z,3.95
2019-05-10T20:26:05.627Z,3.80
2019-05-10T20:31:12.513Z,3.87
2019-05-10T20:36:19.498Z,3.72
2019-05-10T20:41:30.264Z,3.42
2019-05-10T20:46:37.496Z,4.00
2019-05-10T20:51:44.490Z,4.15
2019-05-10T20:56:51.522Z,3.77
2019-05-10T21:01:58.474Z,4.20
2019-05-10T21:07:05.483Z,3.80
2019-05-10T21:12:13.715Z,4.40
2019-05-10T21:17:21.677Z,4.70
2019-05-10T21:22:28.455Z,4.05
2019-05-10T21:27:35.586Z,4.00
2019-05-10T21:32:42.470Z,4.00
2019-05-10T21:37:49.574Z,4.70
2019-05-10T21:42:56.499Z,4.40
2019-05-10T21:48:03.772Z,4.22
2019-05-10T21:53:12.460Z,5.03
2019-05-10T21:58:19.531Z,4.17
2019-05-10T22:03:27.104Z,5.20
2019-05-10T22:08:48.342Z,6.35
2019-05-10T22:16:18.573Z,5.15
2019-05-10T22:21:25.460Z,5.42
2019-05-10T22:26:32.437Z,5.97
2019-05-10T22:31:40.623Z,5.20
2019-05-10T22:36:47.563Z,5.70
2019-05-10T22:41:54.487Z,5.75
2019-05-10T22:47:01.447Z,5.90
2019-05-10T22:52:08.453Z,5.42
2019-05-10T22:57:16.557Z,4.83
2019-05-10T23:02:23.609Z,5.78
2019-05-10T23:07:30.497Z,5.28
2019-05-10T23:12:39.403Z,6.78
2019-05-10T23:17:46.462Z,5.67
2019-05-10T23:22:53.464Z,5.65
2019-05-10T23:28:02.906Z,5.87
2019-05-10T23:33:09.934Z,5.85
2019-05-10T23:38:16.777Z,6.20
2019-05-10T23:43:23.910Z,5.50
2019-05-10T23:48:34.269Z,5.70
2019-05-10T23:53:44.776Z,6.47
2019-05-10T23:58:51.599Z,6.17
